Terminal Aerodrome Forecast
Issued by NWS

Home | Current Version | Previous Version | Text Only | Print | Product List | Glossary On
Versions: 1 2 3 4 5 6 7 8 9 10 11 12 13 14 15 16 17 18
000
FTUS43 KGRB 270533
TAFAUW
TAF
KAUW 270533Z 2706/2806 00000KT 6SM BR SKC
      TEMPO 2706/2708 2SM BR SCT003
     FM270900 00000KT 5SM BR SCT002
      TEMPO 2709/2713 1SM BR BKN002
     FM271400 17003KT 6SM BR SKC
     FM271600 20006KT P6SM SCT250
     FM280000 18003KT P6SM SCT150=

USA.gov is the U.S. government's official web portal to all federal, state and local government web resources and services.